createdAt,value
2019-03-20T00:02:16.886Z,6.13
2019-03-20T00:04:49.954Z,7.17
2019-03-20T00:07:20.853Z,9.30
2019-03-20T00:09:51.701Z,7.57
2019-03-20T00:12:22.478Z,4.93
2019-03-20T00:14:54.586Z,7.80
2019-03-20T00:17:25.393Z,4.57
2019-03-20T00:19:56.218Z,6.13
2019-03-20T00:22:28.217Z,4.90
2019-03-20T00:24:59.526Z,4.90
2019-03-20T00:27:30.389Z,7.30
2019-03-20T00:30:01.245Z,7.27
2019-03-20T00:32:32.224Z,7.90
2019-03-20T00:35:03.056Z,4.93
2019-03-20T00:37:34.191Z,6.67
2019-03-20T00:40:06.026Z,7.13
2019-03-20T00:42:37.546Z,6.53
2019-03-20T00:45:10.147Z,3.53
2019-03-20T00:47:41.283Z,5.57
2019-03-20T00:50:14.124Z,9.73
2019-03-20T00:52:46.092Z,7.90
2019-03-20T00:55:17.365Z,5.60
2019-03-20T00:57:48.260Z,6.17
2019-03-20T01:00:19.586Z,12.23
2019-03-20T01:02:50.619Z,7.50
2019-03-20T01:05:22.010Z,5.77
2019-03-20T01:07:52.871Z,6.67
2019-03-20T01:10:23.946Z,4.73
2019-03-20T01:12:55.101Z,7.50
2019-03-20T01:15:25.903Z,6.23
2019-03-20T01:17:56.611Z,8.07
2019-03-20T01:20:27.709Z,4.30
2019-03-20T01:22:59.095Z,6.70
2019-03-20T01:25:30.158Z,8.50
2019-03-20T01:28:00.820Z,7.10
2019-03-20T01:30:33.298Z,4.77
2019-03-20T01:33:10.994Z,7.50
2019-03-20T01:35:42.185Z,7.47
2019-03-20T01:38:13.046Z,4.97
2019-03-20T01:40:44.756Z,12.97
2019-03-20T01:43:15.560Z,5.53
2019-03-20T01:45:46.815Z,5.63
2019-03-20T01:48:17.499Z,4.60
2019-03-20T01:50:48.164Z,5.67
2019-03-20T01:53:18.849Z,6.77
2019-03-20T01:55:50.376Z,6.47
2019-03-20T01:58:21.046Z,6.30
2019-03-20T03:01:12.234Z,6.30
2019-03-20T03:03:42.892Z,8.47
2019-03-20T03:06:13.588Z,7.33
2019-03-20T03:08:44.290Z,6.27
2019-03-20T03:11:15.029Z,5.87
2019-03-20T03:13:45.785Z,5.20
2019-03-20T03:16:16.451Z,5.97
2019-03-20T03:18:47.147Z,6.77
2019-03-20T03:21:17.813Z,5.73
2019-03-20T03:23:48.486Z,5.70
2019-03-20T03:26:19.497Z,6.87
2019-03-20T03:28:50.199Z,10.27
2019-03-20T03:31:21.785Z,9.03
2019-03-20T03:33:52.801Z,6.43
2019-03-20T03:36:23.835Z,10.10
2019-03-20T03:38:55.459Z,6.93
2019-03-20T03:41:26.499Z,4.27
2019-03-20T03:43:57.234Z,8.93
2019-03-20T03:46:27.925Z,5.83
2019-03-20T03:49:00.166Z,5.60
2019-03-20T03:51:31.402Z,5.87
2019-03-20T03:54:02.346Z,9.43
2019-03-20T03:56:33.098Z,8.40
2019-03-20T03:59:04.638Z,5.20
2019-03-20T04:01:35.323Z,11.07
2019-03-20T04:04:06.002Z,8.37
2019-03-20T04:06:36.692Z,5.83
2019-03-20T04:09:08.408Z,5.40
2019-03-20T04:11:39.353Z,4.97
2019-03-20T04:14:11.853Z,12.80
2019-03-20T04:16:42.878Z,10.57
2019-03-20T04:19:13.553Z,5.20
2019-03-20T04:21:44.233Z,7.70
2019-03-20T04:24:15.055Z,4.67
2019-03-20T04:26:46.693Z,7.10
2019-03-20T04:29:17.390Z,10.90
2019-03-20T04:31:48.331Z,7.53
2019-03-20T04:34:19.045Z,7.40
2019-03-20T04:36:49.753Z,8.43
2019-03-20T04:39:21.296Z,5.57
2019-03-20T04:41:52.033Z,8.43
2019-03-20T04:44:22.826Z,5.60
2019-03-20T04:46:54.160Z,7.00
2019-03-20T04:49:25.813Z,8.47
2019-03-20T04:51:56.548Z,10.63
2019-03-20T04:54:27.320Z,7.03
2019-03-20T04:56:57.993Z,7.07
2019-03-20T04:59:28.654Z,6.43
2019-03-20T05:01:59.613Z,8.73
2019-03-20T05:04:30.284Z,8.10
2019-03-20T05:07:00.962Z,7.50
2019-03-20T05:09:31.993Z,5.93
2019-03-20T05:12:02.652Z,5.80
2019-03-20T05:14:33.326Z,5.00
2019-03-20T05:17:03.990Z,4.80
2019-03-20T05:19:36.370Z,4.27
2019-03-20T05:22:07.036Z,4.40
2019-03-20T05:24:38.001Z,7.20
2019-03-20T05:27:09.655Z,6.97
2019-03-20T05:29:40.961Z,7.73
2019-03-20T05:32:11.698Z,3.70
2019-03-20T05:34:42.388Z,5.77
2019-03-20T05:37:13.065Z,4.73
2019-03-20T05:39:44.074Z,5.27
2019-03-20T05:42:14.833Z,9.87
2019-03-20T05:44:45.781Z,6.17
2019-03-20T05:47:17.065Z,8.63
2019-03-20T05:49:47.749Z,6.30
2019-03-20T05:52:18.756Z,6.80
2019-03-20T05:54:49.441Z,9.80
2019-03-20T05:57:20.153Z,6.73
2019-03-20T05:59:51.105Z,4.80
2019-03-20T06:02:21.782Z,4.27
2019-03-20T06:04:52.445Z,7.23
2019-03-20T06:07:23.212Z,6.73
2019-03-20T06:09:54.153Z,12.43
2019-03-20T06:12:24.829Z,9.13
2019-03-20T06:14:55.509Z,5.63
2019-03-20T06:17:26.585Z,9.77
2019-03-20T06:19:57.258Z,6.30
2019-03-20T06:22:27.920Z,7.80
2019-03-20T06:25:00.418Z,5.40
2019-03-20T06:27:31.809Z,9.00
2019-03-20T06:30:02.498Z,5.03
2019-03-20T06:32:33.172Z,8.70
2019-03-20T06:35:04.717Z,9.97
2019-03-20T06:37:36.467Z,11.37
2019-03-20T06:40:08.097Z,10.83
2019-03-20T06:42:40.056Z,8.33
2019-03-20T06:45:12.477Z,7.90
2019-03-20T06:47:43.198Z,15.17
2019-03-20T06:50:14.855Z,8.37
2019-03-20T06:52:45.613Z,7.50
2019-03-20T06:55:16.775Z,7.80
2019-03-20T06:57:48.326Z,8.63
2019-03-20T07:00:50.464Z,6.77
2019-03-20T07:03:42.749Z,10.23
2019-03-20T07:06:27.213Z,6.37
2019-03-20T07:09:21.733Z,5.47
2019-03-20T07:11:52.388Z,9.43
2019-03-20T07:14:23.335Z,8.07
2019-03-20T07:16:54.005Z,5.73
2019-03-20T07:19:24.681Z,5.13
2019-03-20T07:21:55.705Z,6.13
2019-03-20T07:24:26.643Z,5.83
2019-03-20T07:26:57.304Z,10.70
2019-03-20T07:29:28.335Z,4.60
2019-03-20T07:31:58.815Z,6.90
2019-03-20T07:34:30.844Z,6.37
2019-03-20T07:37:03.153Z,6.03
2019-03-20T07:39:33.829Z,6.77
2019-03-20T07:42:03.893Z,6.90
2019-03-20T07:44:34.658Z,8.23
2019-03-20T07:47:05.945Z,6.60
2019-03-20T07:49:36.709Z,9.23
2019-03-20T07:52:07.828Z,10.03
2019-03-20T07:54:38.855Z,5.90
2019-03-20T07:57:10.384Z,8.03
2019-03-20T07:59:41.904Z,4.93
2019-03-20T08:02:12.577Z,5.93
2019-03-20T08:04:43.560Z,9.40
2019-03-20T08:07:14.884Z,5.27
2019-03-20T08:09:45.828Z,6.93
2019-03-20T08:12:17.245Z,7.03
2019-03-20T08:14:47.923Z,5.47
2019-03-20T08:17:18.258Z,4.93
2019-03-20T08:19:49.188Z,7.57
2019-03-20T08:22:19.902Z,5.07
2019-03-20T08:24:51.241Z,5.10
2019-03-20T08:27:22.215Z,6.80
2019-03-20T08:29:53.459Z,5.43
2019-03-20T08:32:24.199Z,7.87
2019-03-20T08:34:55.155Z,7.83
2019-03-20T08:37:26.913Z,4.80
2019-03-20T08:39:57.864Z,4.40
2019-03-20T08:42:28.532Z,5.40
2019-03-20T08:44:59.286Z,13.27
2019-03-20T08:47:30.288Z,4.13
2019-03-20T08:50:00.969Z,3.50
2019-03-20T08:52:31.990Z,4.07
2019-03-20T08:55:04.756Z,5.77
2019-03-20T08:57:36.173Z,6.03
2019-03-20T09:00:09.861Z,7.10
2019-03-20T09:02:41.405Z,7.13
2019-03-20T09:05:13.444Z,4.13
2019-03-20T09:07:47.571Z,7.27
2019-03-20T09:10:18.754Z,5.23
2019-03-20T09:12:50.702Z,3.90
2019-03-20T09:15:21.831Z,7.07
2019-03-20T09:17:54.154Z,4.83
2019-03-20T09:20:25.247Z,8.83
2019-03-20T09:22:56.064Z,7.10
2019-03-20T09:25:26.911Z,4.67
2019-03-20T09:27:59.761Z,11.93
2019-03-20T09:30:29.930Z,6.73
2019-03-20T09:33:00.570Z,5.93
2019-03-20T09:35:33.177Z,6.37
2019-03-20T09:38:04.015Z,52.63
2019-03-20T09:40:34.810Z,55.23
2019-03-20T09:43:05.557Z,12.53
2019-03-20T09:45:37.264Z,10.80
2019-03-20T09:48:08.142Z,5.80
2019-03-20T09:50:39.019Z,7.13
2019-03-20T09:53:10.286Z,8.47
2019-03-20T09:55:41.146Z,13.17
2019-03-20T09:58:12.895Z,24.87
2019-03-20T10:00:44.066Z,8.07
2019-03-20T10:03:15.230Z,25.43
2019-03-20T10:05:46.254Z,10.17
2019-03-20T10:08:17.906Z,14.47
2019-03-20T10:10:49.327Z,9.20
2019-03-20T10:13:20.517Z,19.77
2019-03-20T10:15:51.270Z,11.30
2019-03-20T10:18:22.087Z,18.83
2019-03-20T10:20:53.229Z,8.20
2019-03-20T10:23:24.094Z,11.67
2019-03-20T10:25:54.229Z,4.90
2019-03-20T10:28:25.139Z,5.03
2019-03-20T10:30:56.000Z,5.40
2019-03-20T10:33:26.820Z,5.83
2019-03-20T10:35:58.600Z,5.30
2019-03-20T10:38:30.285Z,3.47
2019-03-20T10:41:01.046Z,3.47
2019-03-20T10:43:32.318Z,8.83
2019-03-20T10:46:03.109Z,7.70
2019-03-20T10:48:33.837Z,6.17
2019-03-20T10:51:04.713Z,3.90
2019-03-20T10:53:35.431Z,4.70
2019-03-20T10:56:06.504Z,5.27
2019-03-20T10:58:37.322Z,10.23
2019-03-20T11:01:08.938Z,5.80
2019-03-20T11:03:39.755Z,8.17
2019-03-20T11:06:10.880Z,5.87
2019-03-20T11:08:41.818Z,5.80
2019-03-20T11:11:12.963Z,6.23
2019-03-20T11:13:43.707Z,5.87
2019-03-20T11:16:14.502Z,6.17
2019-03-20T11:18:45.277Z,7.37
2019-03-20T11:21:16.077Z,6.60
2019-03-20T11:23:47.681Z,6.10
2019-03-20T11:26:18.825Z,4.30
2019-03-20T11:28:50.056Z,7.20
2019-03-20T11:31:21.157Z,6.10
2019-03-20T11:33:51.922Z,7.70
2019-03-20T11:36:24.779Z,6.43
2019-03-20T11:38:55.545Z,7.57
2019-03-20T11:41:26.982Z,5.73
2019-03-20T11:43:57.746Z,5.73
2019-03-20T11:46:28.596Z,5.83
2019-03-20T11:48:59.409Z,5.50
2019-03-20T11:51:30.502Z,7.57
2019-03-20T11:54:01.319Z,3.50
2019-03-20T11:56:32.162Z,8.97
2019-03-20T11:59:03.323Z,7.30
2019-03-20T12:01:34.098Z,4.17
2019-03-20T12:04:04.903Z,5.07
2019-03-20T12:06:37.368Z,5.23
2019-03-20T12:09:09.690Z,5.17
2019-03-20T12:11:45.709Z,5.50
2019-03-20T12:14:14.535Z,4.80
2019-03-20T12:16:45.574Z,6.53
2019-03-20T12:19:16.339Z,4.00
2019-03-20T12:21:47.066Z,7.90
2019-03-20T12:24:17.874Z,6.90
2019-03-20T12:26:50.514Z,5.40
2019-03-20T12:29:22.541Z,5.63
2019-03-20T12:31:54.346Z,5.63
2019-03-20T12:34:26.683Z,5.47
2019-03-20T12:36:58.831Z,3.97
2019-03-20T12:39:30.263Z,6.73
2019-03-20T12:42:01.736Z,5.23
2019-03-20T12:44:32.918Z,4.90
2019-03-20T12:47:04.875Z,3.27
2019-03-20T12:49:36.271Z,5.03
2019-03-20T12:52:08.744Z,6.73
2019-03-20T12:54:40.643Z,5.50
2019-03-20T12:57:13.483Z,6.57
2019-03-20T12:59:46.264Z,5.30
2019-03-20T13:02:17.098Z,7.03
2019-03-20T13:04:49.978Z,4.87
2019-03-20T13:07:26.026Z,3.17
2019-03-20T13:10:03.164Z,3.33
2019-03-20T13:12:31.410Z,4.20
2019-03-20T13:15:03.662Z,2.97
2019-03-20T13:17:36.206Z,3.73
2019-03-20T13:20:07.822Z,5.77
2019-03-20T13:22:40.203Z,4.47
2019-03-20T13:25:11.920Z,6.13
2019-03-20T13:27:44.382Z,7.80
2019-03-20T13:30:24.744Z,5.30
2019-03-20T13:32:58.245Z,3.93
2019-03-20T13:35:30.122Z,4.43
2019-03-20T13:38:01.460Z,4.67
2019-03-20T13:40:33.269Z,3.10
2019-03-20T13:43:04.925Z,3.17
2019-03-20T13:45:39.739Z,4.00
2019-03-20T13:48:10.513Z,6.03
2019-03-20T13:50:41.557Z,3.30
2019-03-20T13:53:14.980Z,2.80
2019-03-20T13:55:44.998Z,3.53
2019-03-20T13:58:17.221Z,5.93
2019-03-20T14:00:49.834Z,6.17
2019-03-20T14:03:21.577Z,3.70
2019-03-20T14:05:54.118Z,12.47
2019-03-20T14:08:24.849Z,5.73
2019-03-20T14:10:55.914Z,4.87
2019-03-20T14:13:27.398Z,4.40
2019-03-20T14:15:58.856Z,4.37
2019-03-20T14:18:30.625Z,7.00
2019-03-20T14:21:02.477Z,4.97
2019-03-20T14:23:34.809Z,5.70
2019-03-20T14:26:07.071Z,4.20
2019-03-20T14:28:39.495Z,6.77
2019-03-20T14:31:11.275Z,3.07
2019-03-20T14:33:43.594Z,4.03
2019-03-20T14:36:16.231Z,4.90
2019-03-20T14:38:48.514Z,2.70
2019-03-20T14:41:21.824Z,3.07
2019-03-20T14:43:54.977Z,5.80
2019-03-20T14:46:27.281Z,2.70
2019-03-20T14:49:00.227Z,3.20
2019-03-20T14:51:31.744Z,3.87
2019-03-20T14:54:02.571Z,3.07
2019-03-20T14:56:33.974Z,4.27
2019-03-20T14:59:04.807Z,3.10
2019-03-20T15:01:39.468Z,2.27
2019-03-20T15:04:11.346Z,2.60
2019-03-20T15:06:43.872Z,3.67
2019-03-20T15:09:18.143Z,6.30
2019-03-20T15:11:49.225Z,4.60
2019-03-20T15:14:21.572Z,5.43
2019-03-20T15:16:53.736Z,3.53
2019-03-20T15:19:26.057Z,2.23
2019-03-20T15:21:57.834Z,3.40
2019-03-20T15:24:28.790Z,7.60
2019-03-20T15:27:01.552Z,4.67
2019-03-20T15:29:32.549Z,3.77
2019-03-20T15:32:04.597Z,2.87
2019-03-20T15:34:35.285Z,9.33
2019-03-20T15:37:07.843Z,3.13
2019-03-20T15:39:40.065Z,3.60
2019-03-20T15:42:11.569Z,3.77
2019-03-20T15:44:42.625Z,3.00
2019-03-20T15:47:13.997Z,3.63
2019-03-20T15:49:45.414Z,3.07
2019-03-20T15:52:18.245Z,5.10
2019-03-20T15:54:50.310Z,4.20
2019-03-20T15:57:22.262Z,5.63
2019-03-20T15:59:54.789Z,6.47
2019-03-20T16:02:25.574Z,3.87
2019-03-20T16:04:57.154Z,7.33
2019-03-20T16:07:28.409Z,4.20
2019-03-20T16:09:59.880Z,7.37
2019-03-20T16:12:33.194Z,5.47
2019-03-20T16:15:04.092Z,4.53
2019-03-20T16:17:36.092Z,5.47
2019-03-20T16:20:09.250Z,6.67
2019-03-20T16:22:41.187Z,2.80
2019-03-20T16:25:13.325Z,3.70
2019-03-20T16:27:46.693Z,6.33
2019-03-20T16:30:21.158Z,2.27
2019-03-20T16:32:56.377Z,2.70
2019-03-20T16:35:28.114Z,5.33
2019-03-20T16:37:59.667Z,6.37
2019-03-20T16:40:30.359Z,4.47
2019-03-20T16:43:02.968Z,3.13
2019-03-20T16:45:34.657Z,4.83
2019-03-20T16:48:07.238Z,3.63
2019-03-20T16:50:39.541Z,3.23
2019-03-20T16:53:11.282Z,4.30
2019-03-20T16:55:43.552Z,8.40
2019-03-20T16:58:15.454Z,4.60
2019-03-20T17:00:47.877Z,3.93
2019-03-20T17:03:20.165Z,3.47
2019-03-20T17:05:52.753Z,8.17
2019-03-20T17:08:25.429Z,2.07
2019-03-20T17:10:56.485Z,3.03
2019-03-20T17:13:27.974Z,6.77
2019-03-20T17:15:59.570Z,4.03
2019-03-20T17:18:31.353Z,2.50
2019-03-20T17:21:03.149Z,2.50
2019-03-20T17:23:34.922Z,1.97
2019-03-20T17:26:06.202Z,2.60
2019-03-20T17:28:37.966Z,4.50
2019-03-20T17:31:11.049Z,4.57
2019-03-20T17:33:43.978Z,4.03
2019-03-20T17:36:15.481Z,5.20
2019-03-20T17:38:47.049Z,4.50
2019-03-20T17:41:19.633Z,4.00
2019-03-20T17:43:52.654Z,3.57
2019-03-20T17:46:24.318Z,6.90
2019-03-20T17:48:57.605Z,2.77
2019-03-20T17:51:29.973Z,2.73
2019-03-20T17:54:01.807Z,2.00
2019-03-20T17:56:33.458Z,3.93
2019-03-20T17:59:05.482Z,7.50
2019-03-20T18:01:38.985Z,9.57
2019-03-20T18:04:10.842Z,9.90
2019-03-20T18:06:42.670Z,3.57
2019-03-20T18:09:13.988Z,5.87
2019-03-20T18:11:47.607Z,4.97
2019-03-20T18:14:18.754Z,3.57
2019-03-20T18:16:51.238Z,3.23
2019-03-20T18:19:22.281Z,3.90
2019-03-20T18:21:54.926Z,2.70
2019-03-20T18:24:26.696Z,6.10
2019-03-20T18:26:58.610Z,2.70
2019-03-20T18:29:29.375Z,4.57
2019-03-20T18:32:01.611Z,3.23
2019-03-20T18:34:34.238Z,4.20
2019-03-20T18:37:05.233Z,1.83
2019-03-20T18:39:36.217Z,5.00
2019-03-20T18:42:09.595Z,83.57
2019-03-20T18:44:40.410Z,139.17
2019-03-20T18:47:12.242Z,121.33
2019-03-20T18:49:43.782Z,52.77
2019-03-20T18:52:15.739Z,15.43
2019-03-20T18:54:46.765Z,6.40
2019-03-20T18:57:17.801Z,6.27
2019-03-20T18:59:48.761Z,6.23
2019-03-20T19:02:21.635Z,9.63
2019-03-20T19:04:54.461Z,4.67
2019-03-20T19:07:27.342Z,5.57
2019-03-20T19:09:58.136Z,9.73
2019-03-20T19:12:30.549Z,4.90
2019-03-20T19:15:02.117Z,3.10
2019-03-20T19:17:35.108Z,5.87
2019-03-20T19:20:07.564Z,3.83
2019-03-20T19:22:40.360Z,2.63
2019-03-20T19:25:12.742Z,5.33
2019-03-20T19:27:45.113Z,3.80
2019-03-20T19:30:19.510Z,6.97
2019-03-20T19:32:51.367Z,7.23
2019-03-20T19:35:22.400Z,7.57
2019-03-20T19:37:53.741Z,9.03
2019-03-20T19:40:27.495Z,3.73
2019-03-20T19:43:00.028Z,3.93
2019-03-20T19:45:30.805Z,46.13
2019-03-20T19:48:03.385Z,10.70
2019-03-20T19:50:34.167Z,7.43
2019-03-20T19:53:11.744Z,8.87
2019-03-20T19:55:43.840Z,9.80
2019-03-20T19:58:16.454Z,6.43
2019-03-20T20:00:49.155Z,6.77
2019-03-20T20:03:19.865Z,24.40
2019-03-20T20:05:50.558Z,26.60
2019-03-20T20:08:22.667Z,12.20
2019-03-20T20:10:54.646Z,7.63
2019-03-20T20:13:25.701Z,4.93
2019-03-20T20:15:57.206Z,7.47
2019-03-20T20:18:28.841Z,4.43
2019-03-20T20:21:01.164Z,4.77
2019-03-20T20:23:33.894Z,3.47
2019-03-20T20:26:06.214Z,6.17
2019-03-20T20:28:38.034Z,10.57
2019-03-20T20:31:11.181Z,56.60
2019-03-20T20:33:44.106Z,44.27
2019-03-20T20:36:16.488Z,24.13
2019-03-20T20:38:50.901Z,16.53
2019-03-20T20:41:22.615Z,12.93
2019-03-20T20:43:54.657Z,7.07
2019-03-20T20:46:26.112Z,6.37
2019-03-20T20:48:57.109Z,4.47
2019-03-20T20:51:28.410Z,5.03
2019-03-20T20:53:59.763Z,5.60
2019-03-20T20:56:32.487Z,3.93
2019-03-20T20:59:03.730Z,2.83
2019-03-20T21:01:35.376Z,2.67
2019-03-20T21:04:07.994Z,2.50
2019-03-20T21:06:40.931Z,2.60
2019-03-20T21:09:12.709Z,2.57
2019-03-20T21:11:44.789Z,2.90
2019-03-20T21:14:15.877Z,3.37
2019-03-20T21:16:47.578Z,3.17
2019-03-20T21:19:32.594Z,3.47
2019-03-20T21:22:44.618Z,5.57
2019-03-20T21:25:20.525Z,7.17
2019-03-20T21:28:47.979Z,8.47
2019-03-20T21:31:35.970Z,7.50
2019-03-20T21:35:08.847Z,13.67
2019-03-20T21:38:03.787Z,12.90
2019-03-20T21:41:20.900Z,9.87
2019-03-20T21:44:41.661Z,11.43
2019-03-20T21:47:49.319Z,9.40
2019-03-20T21:51:02.413Z,7.63
2019-03-20T21:54:05.036Z,7.33
2019-03-20T21:56:39.698Z,6.57
2019-03-20T21:59:46.188Z,7.07
2019-03-20T22:02:41.258Z,9.87
2019-03-20T22:05:30.689Z,12.77
2019-03-20T22:08:04.101Z,7.20
2019-03-20T22:11:18.462Z,8.30
2019-03-20T22:14:00.277Z,6.27
2019-03-20T22:17:06.758Z,14.13
2019-03-20T22:20:27.461Z,10.23
2019-03-20T22:23:51.205Z,4.77
2019-03-20T22:26:48.952Z,6.00
2019-03-20T22:29:22.764Z,10.67
2019-03-20T22:32:22.627Z,5.17
2019-03-20T22:35:34.508Z,7.07
2019-03-20T22:38:11.143Z,7.60
2019-03-20T22:41:27.225Z,9.30
2019-03-20T22:44:06.791Z,6.47
2019-03-20T22:47:19.786Z,6.57
2019-03-20T22:50:13.252Z,6.63
2019-03-20T22:53:29.718Z,5.77
2019-03-20T22:56:20.263Z,5.17
2019-03-20T22:58:53.963Z,4.20
2019-03-20T23:02:04.913Z,5.03
2019-03-20T23:04:40.730Z,5.07
2019-03-20T23:07:15.111Z,6.30
2019-03-20T23:09:48.473Z,5.43
2019-03-20T23:12:21.048Z,6.57
2019-03-20T23:14:56.549Z,4.60
2019-03-20T23:17:29.237Z,5.50
2019-03-20T23:20:02.090Z,4.67
2019-03-20T23:22:38.642Z,7.93
2019-03-20T23:25:10.657Z,7.47
2019-03-20T23:27:43.590Z,7.27
2019-03-20T23:30:19.170Z,4.50
2019-03-20T23:32:52.871Z,5.90
2019-03-20T23:35:25.861Z,5.90
2019-03-20T23:37:57.707Z,7.57
2019-03-20T23:40:29.941Z,4.30
2019-03-20T23:43:03.014Z,5.80
2019-03-20T23:45:35.446Z,5.17
2019-03-20T23:48:27.195Z,5.43
2019-03-20T23:51:02.786Z,4.50
2019-03-20T23:53:35.319Z,10.40
2019-03-20T23:56:10.090Z,8.27
2019-03-20T23:58:42.714Z,9.43
